sensor_id;sensor_type;location;lat;lon;timestamp;P1;durP1;ratioP1;P2;durP2;ratioP2
65463;SDS011;52063;45.110;9.870;2022-09-09T00:02:17;5.10;;;2.27;;
65463;SDS011;52063;45.110;9.870;2022-09-09T00:04:43;6.68;;;2.33;;
65463;SDS011;52063;45.110;9.870;2022-09-09T00:07:10;5.53;;;2.40;;
65463;SDS011;52063;45.110;9.870;2022-09-09T00:09:49;5.85;;;2.45;;
65463;SDS011;52063;45.110;9.870;2022-09-09T00:12:27;7.28;;;2.03;;
65463;SDS011;52063;45.110;9.870;2022-09-09T00:15:03;5.50;;;2.30;;
65463;SDS011;52063;45.110;9.870;2022-09-09T00:17:36;5.88;;;2.35;;
65463;SDS011;52063;45.110;9.870;2022-09-09T00:20:16;5.63;;;2.43;;
65463;SDS011;52063;45.110;9.870;2022-09-09T00:22:49;8.50;;;2.90;;
65463;SDS011;52063;45.110;9.870;2022-09-09T00:25:23;3.25;;;2.35;;
65463;SDS011;52063;45.110;9.870;2022-09-09T00:27:50;5.68;;;2.22;;
65463;SDS011;52063;45.110;9.870;2022-09-09T00:30:19;7.07;;;3.10;;
65463;SDS011;52063;45.110;9.870;2022-09-09T00:32:48;12.55;;;2.80;;
65463;SDS011;52063;45.110;9.870;2022-09-09T00:35:18;5.03;;;2.80;;
65463;SDS011;52063;45.110;9.870;2022-09-09T00:37:47;8.80;;;3.50;;
65463;SDS011;52063;45.110;9.870;2022-09-09T00:42:48;7.50;;;2.85;;
65463;SDS011;52063;45.110;9.870;2022-09-09T00:47:52;4.90;;;2.70;;
65463;SDS011;52063;45.110;9.870;2022-09-09T00:53:02;6.10;;;2.57;;
65463;SDS011;52063;45.110;9.870;2022-09-09T00:55:38;5.68;;;2.42;;
65463;SDS011;52063;45.110;9.870;2022-09-09T00:58:07;6.22;;;2.63;;
65463;SDS011;52063;45.110;9.870;2022-09-09T01:00:43;8.00;;;2.70;;
65463;SDS011;52063;45.110;9.870;2022-09-09T01:10:53;4.68;;;2.22;;
65463;SDS011;52063;45.110;9.870;2022-09-09T01:13:24;5.43;;;2.55;;
65463;SDS011;52063;45.110;9.870;2022-09-09T01:15:50;6.50;;;2.50;;
65463;SDS011;52063;45.110;9.870;2022-09-09T01:18:17;7.27;;;2.67;;
65463;SDS011;52063;45.110;9.870;2022-09-09T01:23:32;5.88;;;2.70;;
65463;SDS011;52063;45.110;9.870;2022-09-09T01:28:44;7.82;;;2.72;;
65463;SDS011;52063;45.110;9.870;2022-09-09T01:31:14;4.33;;;2.50;;
65463;SDS011;52063;45.110;9.870;2022-09-09T01:33:44;5.13;;;2.80;;
65463;SDS011;52063;45.110;9.870;2022-09-09T01:36:11;5.53;;;2.77;;
65463;SDS011;52063;45.110;9.870;2022-09-09T01:38:45;9.02;;;2.60;;
65463;SDS011;52063;45.110;9.870;2022-09-09T01:41:10;4.93;;;2.80;;
65463;SDS011;52063;45.110;9.870;2022-09-09T01:43:48;5.53;;;2.90;;
65463;SDS011;52063;45.110;9.870;2022-09-09T01:46:14;7.93;;;3.20;;
65463;SDS011;52063;45.110;9.870;2022-09-09T01:48:41;6.30;;;3.60;;
65463;SDS011;52063;45.110;9.870;2022-09-09T01:51:08;7.88;;;3.00;;
65463;SDS011;52063;45.110;9.870;2022-09-09T01:53:35;4.63;;;2.75;;
65463;SDS011;52063;45.110;9.870;2022-09-09T01:56:04;6.57;;;3.00;;
65463;SDS011;52063;45.110;9.870;2022-09-09T02:03:37;6.78;;;3.00;;
65463;SDS011;52063;45.110;9.870;2022-09-09T02:08:47;6.50;;;3.30;;
65463;SDS011;52063;45.110;9.870;2022-09-09T02:11:24;6.78;;;3.03;;
65463;SDS011;52063;45.110;9.870;2022-09-09T02:14:09;5.85;;;2.80;;
65463;SDS011;52063;45.110;9.870;2022-09-09T02:16:50;5.65;;;3.00;;
65463;SDS011;52063;45.110;9.870;2022-09-09T02:19:28;7.22;;;3.20;;
65463;SDS011;52063;45.110;9.870;2022-09-09T02:22:05;6.87;;;3.17;;
65463;SDS011;52063;45.110;9.870;2022-09-09T02:24:31;10.35;;;3.45;;
65463;SDS011;52063;45.110;9.870;2022-09-09T02:27:09;7.70;;;3.40;;
65463;SDS011;52063;45.110;9.870;2022-09-09T02:29:39;7.25;;;3.47;;
65463;SDS011;52063;45.110;9.870;2022-09-09T02:32:08;5.50;;;2.85;;
65463;SDS011;52063;45.110;9.870;2022-09-09T02:34:37;7.93;;;3.30;;
65463;SDS011;52063;45.110;9.870;2022-09-09T02:37:05;7.35;;;3.63;;
65463;SDS011;52063;45.110;9.870;2022-09-09T02:39:31;5.03;;;2.90;;
65463;SDS011;52063;45.110;9.870;2022-09-09T02:41:57;5.68;;;3.30;;
65463;SDS011;52063;45.110;9.870;2022-09-09T02:44:29;7.20;;;3.30;;
65463;SDS011;52063;45.110;9.870;2022-09-09T02:49:43;7.10;;;3.58;;
65463;SDS011;52063;45.110;9.870;2022-09-09T02:52:13;6.90;;;3.15;;
65463;SDS011;52063;45.110;9.870;2022-09-09T02:54:41;6.05;;;3.42;;
65463;SDS011;52063;45.110;9.870;2022-09-09T02:57:11;6.70;;;3.47;;
65463;SDS011;52063;45.110;9.870;2022-09-09T02:59:38;6.03;;;3.40;;
65463;SDS011;52063;45.110;9.870;2022-09-09T03:02:05;5.43;;;3.50;;
65463;SDS011;52063;45.110;9.870;2022-09-09T03:04:31;5.65;;;3.35;;
65463;SDS011;52063;45.110;9.870;2022-09-09T03:06:57;8.20;;;3.63;;
65463;SDS011;52063;45.110;9.870;2022-09-09T03:09:22;4.95;;;2.88;;
65463;SDS011;52063;45.110;9.870;2022-09-09T03:11:49;4.80;;;2.93;;
65463;SDS011;52063;45.110;9.870;2022-09-09T03:14:15;5.10;;;2.70;;
65463;SDS011;52063;45.110;9.870;2022-09-09T03:16:42;8.05;;;3.50;;
65463;SDS011;52063;45.110;9.870;2022-09-09T03:19:11;4.72;;;3.00;;
65463;SDS011;52063;45.110;9.870;2022-09-09T03:21:36;8.40;;;3.10;;
65463;SDS011;52063;45.110;9.870;2022-09-09T03:24:02;5.00;;;2.80;;
65463;SDS011;52063;45.110;9.870;2022-09-09T03:26:29;11.83;;;3.10;;
65463;SDS011;52063;45.110;9.870;2022-09-09T03:28:56;5.95;;;2.90;;
65463;SDS011;52063;45.110;9.870;2022-09-09T03:31:22;6.30;;;2.58;;
65463;SDS011;52063;45.110;9.870;2022-09-09T03:33:49;5.60;;;3.40;;
65463;SDS011;52063;45.110;9.870;2022-09-09T03:36:16;10.32;;;3.20;;
65463;SDS011;52063;45.110;9.870;2022-09-09T03:38:41;6.90;;;3.50;;
65463;SDS011;52063;45.110;9.870;2022-09-09T03:41:07;5.87;;;3.40;;
65463;SDS011;52063;45.110;9.870;2022-09-09T03:43:33;8.60;;;3.15;;
65463;SDS011;52063;45.110;9.870;2022-09-09T03:45:59;7.15;;;3.67;;
65463;SDS011;52063;45.110;9.870;2022-09-09T03:48:26;6.87;;;3.40;;
65463;SDS011;52063;45.110;9.870;2022-09-09T03:50:53;6.57;;;4.00;;
65463;SDS011;52063;45.110;9.870;2022-09-09T03:53:20;7.00;;;3.47;;
65463;SDS011;52063;45.110;9.870;2022-09-09T03:55:46;5.63;;;3.50;;
65463;SDS011;52063;45.110;9.870;2022-09-09T03:58:13;9.13;;;3.92;;
65463;SDS011;52063;45.110;9.870;2022-09-09T04:00:39;5.87;;;3.73;;
65463;SDS011;52063;45.110;9.870;2022-09-09T04:03:10;6.93;;;3.90;;
65463;SDS011;52063;45.110;9.870;2022-09-09T04:05:36;7.70;;;4.20;;
65463;SDS011;52063;45.110;9.870;2022-09-09T04:08:05;8.82;;;3.20;;
65463;SDS011;52063;45.110;9.870;2022-09-09T04:10:31;6.57;;;3.40;;
65463;SDS011;52063;45.110;9.870;2022-09-09T04:12:57;6.45;;;3.50;;
65463;SDS011;52063;45.110;9.870;2022-09-09T04:15:22;6.00;;;3.50;;
65463;SDS011;52063;45.110;9.870;2022-09-09T04:17:47;5.65;;;3.38;;
65463;SDS011;52063;45.110;9.870;2022-09-09T04:20:13;5.60;;;3.13;;
65463;SDS011;52063;45.110;9.870;2022-09-09T04:22:38;8.37;;;3.50;;
65463;SDS011;52063;45.110;9.870;2022-09-09T04:25:05;5.88;;;3.35;;
65463;SDS011;52063;45.110;9.870;2022-09-09T04:27:31;7.70;;;3.90;;
65463;SDS011;52063;45.110;9.870;2022-09-09T04:29:56;5.40;;;4.00;;
65463;SDS011;52063;45.110;9.870;2022-09-09T04:32:23;6.70;;;3.92;;
65463;SDS011;52063;45.110;9.870;2022-09-09T04:34:51;10.27;;;4.68;;
65463;SDS011;52063;45.110;9.870;2022-09-09T04:37:17;6.00;;;3.70;;
65463;SDS011;52063;45.110;9.870;2022-09-09T04:39:42;6.07;;;3.87;;
65463;SDS011;52063;45.110;9.870;2022-09-09T04:42:07;7.87;;;4.30;;
65463;SDS011;52063;45.110;9.870;2022-09-09T04:44:33;9.65;;;4.65;;
65463;SDS011;52063;45.110;9.870;2022-09-09T04:46:58;7.67;;;4.33;;
65463;SDS011;52063;45.110;9.870;2022-09-09T04:49:24;6.20;;;4.53;;
65463;SDS011;52063;45.110;9.870;2022-09-09T04:51:50;8.33;;;5.17;;
65463;SDS011;52063;45.110;9.870;2022-09-09T04:54:17;9.73;;;4.95;;
65463;SDS011;52063;45.110;9.870;2022-09-09T04:56:44;10.82;;;5.20;;
65463;SDS011;52063;45.110;9.870;2022-09-09T04:59:10;7.13;;;4.97;;
65463;SDS011;52063;45.110;9.870;2022-09-09T05:01:41;8.95;;;5.20;;
65463;SDS011;52063;45.110;9.870;2022-09-09T05:04:07;11.47;;;5.27;;
65463;SDS011;52063;45.110;9.870;2022-09-09T05:06:34;7.35;;;5.90;;
65463;SDS011;52063;45.110;9.870;2022-09-09T05:09:01;7.97;;;5.22;;
65463;SDS011;52063;45.110;9.870;2022-09-09T05:11:29;9.50;;;5.60;;
65463;SDS011;52063;45.110;9.870;2022-09-09T05:14:13;9.60;;;4.50;;
65463;SDS011;52063;45.110;9.870;2022-09-09T05:16:39;7.45;;;4.88;;
65463;SDS011;52063;45.110;9.870;2022-09-09T05:19:07;11.02;;;5.47;;
65463;SDS011;52063;45.110;9.870;2022-09-09T05:21:53;8.18;;;5.35;;
65463;SDS011;52063;45.110;9.870;2022-09-09T05:24:28;8.52;;;5.32;;
65463;SDS011;52063;45.110;9.870;2022-09-09T05:26:56;11.40;;;5.80;;
65463;SDS011;52063;45.110;9.870;2022-09-09T05:29:24;10.50;;;5.38;;
65463;SDS011;52063;45.110;9.870;2022-09-09T05:31:49;13.63;;;5.90;;
65463;SDS011;52063;45.110;9.870;2022-09-09T05:34:18;11.52;;;5.57;;
65463;SDS011;52063;45.110;9.870;2022-09-09T05:36:43;12.38;;;5.45;;
65463;SDS011;52063;45.110;9.870;2022-09-09T05:39:10;8.45;;;5.90;;
65463;SDS011;52063;45.110;9.870;2022-09-09T05:41:37;11.97;;;5.63;;
65463;SDS011;52063;45.110;9.870;2022-09-09T05:44:03;10.18;;;5.95;;
65463;SDS011;52063;45.110;9.870;2022-09-09T05:46:33;16.35;;;6.10;;
65463;SDS011;52063;45.110;9.870;2022-09-09T05:48:59;12.18;;;6.15;;
65463;SDS011;52063;45.110;9.870;2022-09-09T05:51:29;11.27;;;6.10;;
65463;SDS011;52063;45.110;9.870;2022-09-09T05:54:01;11.70;;;6.18;;
65463;SDS011;52063;45.110;9.870;2022-09-09T05:56:30;12.43;;;6.35;;
65463;SDS011;52063;45.110;9.870;2022-09-09T05:58:58;16.95;;;6.22;;
65463;SDS011;52063;45.110;9.870;2022-09-09T06:01:26;10.57;;;5.60;;
65463;SDS011;52063;45.110;9.870;2022-09-09T06:03:52;14.20;;;6.27;;
65463;SDS011;52063;45.110;9.870;2022-09-09T06:06:19;14.18;;;5.95;;
65463;SDS011;52063;45.110;9.870;2022-09-09T06:08:50;17.13;;;6.22;;
65463;SDS011;52063;45.110;9.870;2022-09-09T06:13:42;19.20;;;8.83;;
65463;SDS011;52063;45.110;9.870;2022-09-09T06:16:12;18.67;;;10.52;;
65463;SDS011;52063;45.110;9.870;2022-09-09T06:18:39;17.20;;;10.48;;
65463;SDS011;52063;45.110;9.870;2022-09-09T06:21:05;20.53;;;11.23;;
65463;SDS011;52063;45.110;9.870;2022-09-09T06:23:32;22.13;;;10.80;;
65463;SDS011;52063;45.110;9.870;2022-09-09T06:26:09;26.38;;;11.10;;
65463;SDS011;52063;45.110;9.870;2022-09-09T06:28:35;22.10;;;10.88;;
65463;SDS011;52063;45.110;9.870;2022-09-09T06:31:11;24.27;;;11.50;;
65463;SDS011;52063;45.110;9.870;2022-09-09T06:33:37;19.13;;;10.53;;
65463;SDS011;52063;45.110;9.870;2022-09-09T06:36:16;19.70;;;10.73;;
65463;SDS011;52063;45.110;9.870;2022-09-09T06:38:42;24.05;;;11.68;;
65463;SDS011;52063;45.110;9.870;2022-09-09T06:41:10;18.98;;;11.65;;
65463;SDS011;52063;45.110;9.870;2022-09-09T06:43:37;23.83;;;11.95;;
65463;SDS011;52063;45.110;9.870;2022-09-09T06:46:36;21.93;;;11.73;;
65463;SDS011;52063;45.110;9.870;2022-09-09T06:48:56;19.55;;;11.93;;
65463;SDS011;52063;45.110;9.870;2022-09-09T06:51:25;19.80;;;11.00;;
65463;SDS011;52063;45.110;9.870;2022-09-09T06:53:51;20.80;;;10.90;;
65463;SDS011;52063;45.110;9.870;2022-09-09T06:56:31;19.92;;;10.55;;
65463;SDS011;52063;45.110;9.870;2022-09-09T06:58:58;25.27;;;11.73;;
65463;SDS011;52063;45.110;9.870;2022-09-09T07:01:28;20.50;;;10.40;;
65463;SDS011;52063;45.110;9.870;2022-09-09T07:03:56;22.25;;;10.88;;
65463;SDS011;52063;45.110;9.870;2022-09-09T07:06:25;20.30;;;10.35;;
65463;SDS011;52063;45.110;9.870;2022-09-09T07:08:51;19.45;;;10.35;;
65463;SDS011;52063;45.110;9.870;2022-09-09T07:11:18;18.87;;;10.97;;
65463;SDS011;52063;45.110;9.870;2022-09-09T07:13:44;19.40;;;11.15;;
65463;SDS011;52063;45.110;9.870;2022-09-09T07:16:10;21.13;;;10.80;;
65463;SDS011;52063;45.110;9.870;2022-09-09T07:18:36;22.48;;;10.88;;
65463;SDS011;52063;45.110;9.870;2022-09-09T07:21:02;19.23;;;10.23;;
65463;SDS011;52063;45.110;9.870;2022-09-09T07:23:28;21.00;;;11.23;;
65463;SDS011;52063;45.110;9.870;2022-09-09T07:25:54;21.70;;;11.98;;
65463;SDS011;52063;45.110;9.870;2022-09-09T07:28:20;26.20;;;12.65;;
65463;SDS011;52063;45.110;9.870;2022-09-09T07:30:52;17.87;;;12.33;;
65463;SDS011;52063;45.110;9.870;2022-09-09T07:33:18;20.85;;;11.43;;
65463;SDS011;52063;45.110;9.870;2022-09-09T07:35:45;21.05;;;11.60;;
65463;SDS011;52063;45.110;9.870;2022-09-09T07:38:11;20.25;;;11.73;;
65463;SDS011;52063;45.110;9.870;2022-09-09T07:40:37;19.52;;;12.38;;
65463;SDS011;52063;45.110;9.870;2022-09-09T07:43:02;21.10;;;12.10;;
65463;SDS011;52063;45.110;9.870;2022-09-09T07:45:28;23.57;;;11.60;;
65463;SDS011;52063;45.110;9.870;2022-09-09T07:47:54;24.25;;;12.18;;
65463;SDS011;52063;45.110;9.870;2022-09-09T07:50:22;24.17;;;11.60;;
65463;SDS011;52063;45.110;9.870;2022-09-09T07:52:50;23.27;;;12.18;;
65463;SDS011;52063;45.110;9.870;2022-09-09T07:55:16;22.85;;;11.77;;
65463;SDS011;52063;45.110;9.870;2022-09-09T07:57:41;21.83;;;12.35;;
65463;SDS011;52063;45.110;9.870;2022-09-09T08:00:08;22.37;;;11.77;;
65463;SDS011;52063;45.110;9.870;2022-09-09T08:02:42;24.65;;;11.80;;
65463;SDS011;52063;45.110;9.870;2022-09-09T08:05:09;21.52;;;11.25;;
65463;SDS011;52063;45.110;9.870;2022-09-09T08:07:36;18.48;;;10.95;;
65463;SDS011;52063;45.110;9.870;2022-09-09T08:10:02;21.53;;;10.70;;
65463;SDS011;52063;45.110;9.870;2022-09-09T08:12:30;20.63;;;10.77;;
65463;SDS011;52063;45.110;9.870;2022-09-09T08:14:56;23.08;;;11.00;;
65463;SDS011;52063;45.110;9.870;2022-09-09T08:17:26;21.92;;;11.65;;
65463;SDS011;52063;45.110;9.870;2022-09-09T08:19:52;21.40;;;10.37;;
65463;SDS011;52063;45.110;9.870;2022-09-09T08:22:22;22.65;;;10.18;;
65463;SDS011;52063;45.110;9.870;2022-09-09T08:24:49;20.10;;;10.38;;
65463;SDS011;52063;45.110;9.870;2022-09-09T08:27:15;19.63;;;10.57;;
65463;SDS011;52063;45.110;9.870;2022-09-09T08:29:40;16.58;;;10.07;;
65463;SDS011;52063;45.110;9.870;2022-09-09T08:32:06;17.70;;;9.57;;
65463;SDS011;52063;45.110;9.870;2022-09-09T08:34:32;22.90;;;11.20;;
65463;SDS011;52063;45.110;9.870;2022-09-09T08:37:02;16.83;;;10.15;;
65463;SDS011;52063;45.110;9.870;2022-09-09T08:39:33;20.15;;;10.27;;
65463;SDS011;52063;45.110;9.870;2022-09-09T08:57:38;16.10;;;8.90;;
65463;SDS011;52063;45.110;9.870;2022-09-09T09:00:04;20.23;;;9.20;;
65463;SDS011;52063;45.110;9.870;2022-09-09T09:02:36;15.93;;;8.20;;
65463;SDS011;52063;45.110;9.870;2022-09-09T09:10:45;13.63;;;5.95;;
65463;SDS011;52063;45.110;9.870;2022-09-09T09:15:53;7.65;;;3.70;;
65463;SDS011;52063;45.110;9.870;2022-09-09T09:18:20;4.65;;;3.28;;
65463;SDS011;52063;45.110;9.870;2022-09-09T09:20:50;6.63;;;2.50;;
65463;SDS011;52063;45.110;9.870;2022-09-09T09:23:22;3.75;;;2.25;;
65463;SDS011;52063;45.110;9.870;2022-09-09T09:25:48;4.45;;;1.63;;
65463;SDS011;52063;45.110;9.870;2022-09-09T09:28:16;4.25;;;1.50;;
65463;SDS011;52063;45.110;9.870;2022-09-09T09:30:47;7.60;;;1.33;;
65463;SDS011;52063;45.110;9.870;2022-09-09T09:33:25;4.47;;;1.30;;
65463;SDS011;52063;45.110;9.870;2022-09-09T09:35:52;4.22;;;1.13;;
65463;SDS011;52063;45.110;9.870;2022-09-09T09:38:23;2.90;;;1.20;;
65463;SDS011;52063;45.110;9.870;2022-09-09T09:40:54;6.18;;;1.20;;
65463;SDS011;52063;45.110;9.870;2022-09-09T09:45:56;5.33;;;0.97;;
65463;SDS011;52063;45.110;9.870;2022-09-09T09:48:23;5.18;;;1.17;;
65463;SDS011;52063;45.110;9.870;2022-09-09T09:50:56;2.13;;;0.90;;
65463;SDS011;52063;45.110;9.870;2022-09-09T09:53:27;3.65;;;0.90;;
65463;SDS011;52063;45.110;9.870;2022-09-09T09:56:28;5.15;;;0.57;;
65463;SDS011;52063;45.110;9.870;2022-09-09T09:58:50;5.43;;;0.97;;
65463;SDS011;52063;45.110;9.870;2022-09-09T10:03:50;4.43;;;0.93;;
65463;SDS011;52063;45.110;9.870;2022-09-09T10:06:17;2.28;;;0.82;;
65463;SDS011;52063;45.110;9.870;2022-09-09T10:08:45;6.93;;;1.07;;
65463;SDS011;52063;45.110;9.870;2022-09-09T10:21:28;2.87;;;0.93;;
65463;SDS011;52063;45.110;9.870;2022-09-09T10:27:17;1.42;;;0.90;;
65463;SDS011;52063;45.110;9.870;2022-09-09T10:37:19;2.37;;;1.20;;
65463;SDS011;52063;45.110;9.870;2022-09-09T10:39:47;2.63;;;0.90;;
65463;SDS011;52063;45.110;9.870;2022-09-09T10:42:15;2.20;;;1.08;;
65463;SDS011;52063;45.110;9.870;2022-09-09T10:55:19;5.00;;;1.10;;
65463;SDS011;52063;45.110;9.870;2022-09-09T10:57:46;4.90;;;1.35;;
65463;SDS011;52063;45.110;9.870;2022-09-09T11:00:22;4.00;;;1.40;;
65463;SDS011;52063;45.110;9.870;2022-09-09T11:02:52;3.65;;;1.23;;
65463;SDS011;52063;45.110;9.870;2022-09-09T11:05:20;2.38;;;1.40;;
65463;SDS011;52063;45.110;9.870;2022-09-09T11:07:57;4.67;;;1.50;;
65463;SDS011;52063;45.110;9.870;2022-09-09T11:16:13;4.80;;;1.50;;
65463;SDS011;52063;45.110;9.870;2022-09-09T11:18:40;6.47;;;1.60;;
65463;SDS011;52063;45.110;9.870;2022-09-09T11:21:10;3.33;;;1.40;;
65463;SDS011;52063;45.110;9.870;2022-09-09T11:23:40;4.97;;;1.77;;
65463;SDS011;52063;45.110;9.870;2022-09-09T11:26:07;2.40;;;1.48;;
65463;SDS011;52063;45.110;9.870;2022-09-09T11:36:15;11.07;;;2.00;;
65463;SDS011;52063;45.110;9.870;2022-09-09T11:38:44;8.13;;;1.95;;
65463;SDS011;52063;45.110;9.870;2022-09-09T11:41:10;5.93;;;2.20;;
65463;SDS011;52063;45.110;9.870;2022-09-09T11:43:40;5.15;;;2.15;;
65463;SDS011;52063;45.110;9.870;2022-09-09T11:46:06;6.13;;;2.27;;
65463;SDS011;52063;45.110;9.870;2022-09-09T11:53:30;8.53;;;2.40;;
65463;SDS011;52063;45.110;9.870;2022-09-09T11:56:00;8.40;;;2.33;;
65463;SDS011;52063;45.110;9.870;2022-09-09T11:58:26;5.70;;;2.15;;
65463;SDS011;52063;45.110;9.870;2022-09-09T12:00:52;7.10;;;2.20;;
65463;SDS011;52063;45.110;9.870;2022-09-09T12:06:09;5.68;;;2.00;;
65463;SDS011;52063;45.110;9.870;2022-09-09T12:08:36;6.32;;;2.00;;
65463;SDS011;52063;45.110;9.870;2022-09-09T12:11:02;6.77;;;1.87;;
65463;SDS011;52063;45.110;9.870;2022-09-09T12:13:29;5.82;;;2.10;;
65463;SDS011;52063;45.110;9.870;2022-09-09T12:15:57;9.43;;;1.88;;
65463;SDS011;52063;45.110;9.870;2022-09-09T12:20:57;3.28;;;1.80;;
65463;SDS011;52063;45.110;9.870;2022-09-09T12:31:44;4.55;;;1.90;;
65463;SDS011;52063;45.110;9.870;2022-09-09T12:34:24;4.05;;;1.55;;
65463;SDS011;52063;45.110;9.870;2022-09-09T12:36:58;2.23;;;1.50;;
65463;SDS011;52063;45.110;9.870;2022-09-09T12:39:29;5.60;;;1.45;;
65463;SDS011;52063;45.110;9.870;2022-09-09T12:41:57;3.92;;;1.65;;
65463;SDS011;52063;45.110;9.870;2022-09-09T12:44:23;4.63;;;1.70;;
65463;SDS011;52063;45.110;9.870;2022-09-09T12:46:48;3.45;;;1.80;;
65463;SDS011;52063;45.110;9.870;2022-09-09T12:49:25;7.38;;;1.98;;
65463;SDS011;52063;45.110;9.870;2022-09-09T12:51:52;4.37;;;1.60;;
65463;SDS011;52063;45.110;9.870;2022-09-09T12:54:17;3.33;;;1.25;;
65463;SDS011;52063;45.110;9.870;2022-09-09T12:56:46;3.88;;;1.75;;
65463;SDS011;52063;45.110;9.870;2022-09-09T12:59:23;4.80;;;1.33;;
65463;SDS011;52063;45.110;9.870;2022-09-09T13:01:55;3.65;;;1.52;;
65463;SDS011;52063;45.110;9.870;2022-09-09T13:04:20;3.85;;;1.80;;
65463;SDS011;52063;45.110;9.870;2022-09-09T13:06:47;6.45;;;1.75;;
65463;SDS011;52063;45.110;9.870;2022-09-09T13:09:12;9.73;;;1.67;;
65463;SDS011;52063;45.110;9.870;2022-09-09T13:11:41;3.00;;;1.57;;
65463;SDS011;52063;45.110;9.870;2022-09-09T13:14:18;4.80;;;1.50;;
65463;SDS011;52063;45.110;9.870;2022-09-09T13:16:53;3.95;;;1.63;;
65463;SDS011;52063;45.110;9.870;2022-09-09T13:19:19;3.42;;;1.83;;
65463;SDS011;52063;45.110;9.870;2022-09-09T13:21:46;2.83;;;1.50;;
65463;SDS011;52063;45.110;9.870;2022-09-09T13:24:30;3.75;;;1.40;;
65463;SDS011;52063;45.110;9.870;2022-09-09T13:27:00;2.38;;;1.40;;
65463;SDS011;52063;45.110;9.870;2022-09-09T13:29:29;3.77;;;1.43;;
65463;SDS011;52063;45.110;9.870;2022-09-09T13:32:03;3.63;;;1.83;;
65463;SDS011;52063;45.110;9.870;2022-09-09T13:34:29;4.18;;;1.42;;
65463;SDS011;52063;45.110;9.870;2022-09-09T13:36:57;4.25;;;1.50;;
65463;SDS011;52063;45.110;9.870;2022-09-09T13:39:24;2.93;;;1.50;;
65463;SDS011;52063;45.110;9.870;2022-09-09T13:41:49;5.60;;;1.67;;
65463;SDS011;52063;45.110;9.870;2022-09-09T13:44:19;4.83;;;1.50;;
65463;SDS011;52063;45.110;9.870;2022-09-09T13:46:45;4.88;;;1.55;;
65463;SDS011;52063;45.110;9.870;2022-09-09T13:51:37;3.20;;;1.37;;
65463;SDS011;52063;45.110;9.870;2022-09-09T13:54:04;4.05;;;1.60;;
65463;SDS011;52063;45.110;9.870;2022-09-09T13:56:30;3.20;;;1.67;;
65463;SDS011;52063;45.110;9.870;2022-09-09T13:58:56;3.22;;;1.70;;
65463;SDS011;52063;45.110;9.870;2022-09-09T14:01:22;4.77;;;1.60;;
65463;SDS011;52063;45.110;9.870;2022-09-09T14:03:48;5.45;;;1.85;;
65463;SDS011;52063;45.110;9.870;2022-09-09T14:06:13;4.80;;;1.50;;
65463;SDS011;52063;45.110;9.870;2022-09-09T14:08:38;2.83;;;1.60;;
65463;SDS011;52063;45.110;9.870;2022-09-09T14:11:04;2.70;;;1.57;;
65463;SDS011;52063;45.110;9.870;2022-09-09T14:13:29;3.47;;;1.60;;
65463;SDS011;52063;45.110;9.870;2022-09-09T14:15:54;3.13;;;1.50;;
65463;SDS011;52063;45.110;9.870;2022-09-09T14:18:20;2.23;;;1.20;;
65463;SDS011;52063;45.110;9.870;2022-09-09T14:20:47;5.50;;;1.58;;
65463;SDS011;52063;45.110;9.870;2022-09-09T14:23:13;2.97;;;1.30;;
65463;SDS011;52063;45.110;9.870;2022-09-09T14:25:42;1.97;;;1.40;;
65463;SDS011;52063;45.110;9.870;2022-09-09T14:28:08;2.92;;;1.60;;
65463;SDS011;52063;45.110;9.870;2022-09-09T14:30:34;4.18;;;1.65;;
65463;SDS011;52063;45.110;9.870;2022-09-09T14:33:00;2.60;;;1.70;;
65463;SDS011;52063;45.110;9.870;2022-09-09T14:35:25;2.50;;;1.58;;
65463;SDS011;52063;45.110;9.870;2022-09-09T14:37:50;2.73;;;1.70;;
65463;SDS011;52063;45.110;9.870;2022-09-09T14:40:16;5.05;;;1.75;;
65463;SDS011;52063;45.110;9.870;2022-09-09T14:42:42;2.17;;;1.40;;
65463;SDS011;52063;45.110;9.870;2022-09-09T14:45:07;6.43;;;1.67;;
65463;SDS011;52063;45.110;9.870;2022-09-09T14:47:33;6.20;;;1.60;;
65463;SDS011;52063;45.110;9.870;2022-09-09T14:49:58;4.07;;;1.55;;
65463;SDS011;52063;45.110;9.870;2022-09-09T14:52:26;3.17;;;1.85;;
65463;SDS011;52063;45.110;9.870;2022-09-09T14:54:51;2.30;;;1.80;;
65463;SDS011;52063;45.110;9.870;2022-09-09T14:57:16;4.20;;;1.90;;
65463;SDS011;52063;45.110;9.870;2022-09-09T14:59:42;6.63;;;1.80;;
65463;SDS011;52063;45.110;9.870;2022-09-09T15:02:08;5.77;;;1.77;;
65463;SDS011;52063;45.110;9.870;2022-09-09T15:04:33;3.83;;;1.70;;
65463;SDS011;52063;45.110;9.870;2022-09-09T15:06:59;3.90;;;1.88;;
65463;SDS011;52063;45.110;9.870;2022-09-09T15:09:24;5.53;;;1.67;;
65463;SDS011;52063;45.110;9.870;2022-09-09T15:11:50;4.60;;;1.70;;
65463;SDS011;52063;45.110;9.870;2022-09-09T15:14:15;3.93;;;1.87;;
65463;SDS011;52063;45.110;9.870;2022-09-09T15:16:41;5.90;;;2.43;;
65463;SDS011;52063;45.110;9.870;2022-09-09T15:19:06;2.37;;;1.67;;
65463;SDS011;52063;45.110;9.870;2022-09-09T15:21:33;8.35;;;1.95;;
65463;SDS011;52063;45.110;9.870;2022-09-09T15:23:59;5.25;;;1.98;;
65463;SDS011;52063;45.110;9.870;2022-09-09T15:26:25;4.97;;;1.80;;
65463;SDS011;52063;45.110;9.870;2022-09-09T15:28:51;5.15;;;2.00;;
65463;SDS011;52063;45.110;9.870;2022-09-09T15:31:18;4.10;;;1.93;;
65463;SDS011;52063;45.110;9.870;2022-09-09T15:33:47;4.18;;;2.00;;
65463;SDS011;52063;45.110;9.870;2022-09-09T15:38:39;3.07;;;1.57;;
65463;SDS011;52063;45.110;9.870;2022-09-09T15:41:04;4.60;;;2.00;;
65463;SDS011;52063;45.110;9.870;2022-09-09T15:43:29;5.90;;;1.65;;
65463;SDS011;52063;45.110;9.870;2022-09-09T15:45:57;5.43;;;1.57;;
65463;SDS011;52063;45.110;9.870;2022-09-09T15:48:30;3.40;;;1.85;;
65463;SDS011;52063;45.110;9.870;2022-09-09T15:51:03;3.90;;;1.77;;
65463;SDS011;52063;45.110;9.870;2022-09-09T15:53:29;3.67;;;1.80;;
65463;SDS011;52063;45.110;9.870;2022-09-09T15:55:56;6.35;;;2.20;;
65463;SDS011;52063;45.110;9.870;2022-09-09T15:58:21;4.50;;;1.57;;
65463;SDS011;52063;45.110;9.870;2022-09-09T16:00:46;4.63;;;1.60;;
65463;SDS011;52063;45.110;9.870;2022-09-09T16:03:12;4.97;;;1.90;;
65463;SDS011;52063;45.110;9.870;2022-09-09T16:05:38;5.80;;;2.27;;
65463;SDS011;52063;45.110;9.870;2022-09-09T16:08:03;4.53;;;1.73;;
65463;SDS011;52063;45.110;9.870;2022-09-09T16:10:29;7.00;;;1.88;;
65463;SDS011;52063;45.110;9.870;2022-09-09T16:12:55;3.67;;;1.80;;
65463;SDS011;52063;45.110;9.870;2022-09-09T16:15:21;7.00;;;2.07;;
65463;SDS011;52063;45.110;9.870;2022-09-09T16:17:48;3.25;;;1.60;;
65463;SDS011;52063;45.110;9.870;2022-09-09T16:20:13;4.23;;;1.53;;
65463;SDS011;52063;45.110;9.870;2022-09-09T16:22:39;4.40;;;1.70;;
65463;SDS011;52063;45.110;9.870;2022-09-09T16:25:05;3.40;;;1.60;;
65463;SDS011;52063;45.110;9.870;2022-09-09T16:27:31;4.50;;;1.67;;
65463;SDS011;52063;45.110;9.870;2022-09-09T16:29:56;6.10;;;1.97;;
65463;SDS011;52063;45.110;9.870;2022-09-09T16:32:22;6.75;;;1.90;;
65463;SDS011;52063;45.110;9.870;2022-09-09T16:34:47;5.80;;;2.03;;
65463;SDS011;52063;45.110;9.870;2022-09-09T16:37:12;4.20;;;2.03;;
65463;SDS011;52063;45.110;9.870;2022-09-09T16:39:38;3.33;;;1.50;;
65463;SDS011;52063;45.110;9.870;2022-09-09T16:42:03;2.67;;;1.67;;
65463;SDS011;52063;45.110;9.870;2022-09-09T16:44:29;5.93;;;1.80;;
65463;SDS011;52063;45.110;9.870;2022-09-09T16:46:55;4.22;;;1.20;;
65463;SDS011;52063;45.110;9.870;2022-09-09T16:49:21;5.87;;;2.00;;
65463;SDS011;52063;45.110;9.870;2022-09-09T16:51:47;2.67;;;1.80;;
65463;SDS011;52063;45.110;9.870;2022-09-09T16:54:13;6.75;;;1.90;;
65463;SDS011;52063;45.110;9.870;2022-09-09T16:56:40;5.32;;;1.75;;
65463;SDS011;52063;45.110;9.870;2022-09-09T16:59:12;4.43;;;1.60;;
65463;SDS011;52063;45.110;9.870;2022-09-09T17:01:38;3.27;;;1.80;;